THY9521 SKPS-SKBO
Flight info
| Callsign | THY9521 |
|---|---|
| Flight time | 0h 47m |
| Altitude | 35000 |
| Route | TITGU2A TITGU DCT ESARO DCT GIR GIR4W |
| Aircraft | B738/M-SDE2E3FGHIRWXY/LB1 |
Departure
| Time | 2026-04-26 09:11 |
|---|---|
| Airport | Antonio Nariño Airport (SKPS) |
Arrival
| Time | 2026-04-26 09:59 |
|---|---|
| Airport | El Dorado International Airport (SKBO) |
| Time | Latitude | Longitude | Altitude | Speed | Heading |
|---|---|---|---|---|---|
| 2026-04-26 08:43 | 1.39577 | -77.28987 | 5907 ft | 0 kts | 105° |
| 2026-04-26 09:03 | 1.39580 | -77.28997 | 5907 ft | 4 kts | 105° |
| 2026-04-26 09:04 | 1.39587 | -77.29023 | 5907 ft | 4 kts | 108° |
| 2026-04-26 09:04 | 1.39594 | -77.29042 | 5907 ft | 0 kts | 109° |
| 2026-04-26 09:06 | 1.39593 | -77.29041 | 5907 ft | 1 kts | 113° |
| 2026-04-26 09:07 | 1.39583 | -77.29037 | 5907 ft | 3 kts | 166° |
| 2026-04-26 09:07 | 1.39549 | -77.29036 | 5907 ft | 7 kts | 179° |
| 2026-04-26 09:07 | 1.39513 | -77.29053 | 5908 ft | 4 kts | 253° |
| 2026-04-26 09:07 | 1.39517 | -77.29084 | 5911 ft | 5 kts | 281° |
| 2026-04-26 09:08 | 1.39512 | -77.29124 | 5912 ft | 6 kts | 235° |
| 2026-04-26 09:08 | 1.39472 | -77.29141 | 5915 ft | 7 kts | 195° |
| 2026-04-26 09:08 | 1.39423 | -77.29155 | 5918 ft | 8 kts | 194° |
| 2026-04-26 09:08 | 1.39365 | -77.29169 | 5922 ft | 9 kts | 195° |
| 2026-04-26 09:09 | 1.39298 | -77.29188 | 5923 ft | 12 kts | 195° |
| 2026-04-26 09:09 | 1.39207 | -77.29213 | 5927 ft | 16 kts | 195° |
| 2026-04-26 09:09 | 1.39087 | -77.29246 | 5934 ft | 19 kts | 195° |
| 2026-04-26 09:09 | 1.38950 | -77.29282 | 5939 ft | 21 kts | 194° |
| 2026-04-26 09:10 | 1.38802 | -77.29321 | 5943 ft | 23 kts | 195° |
| 2026-04-26 09:10 | 1.38711 | -77.29333 | 5953 ft | 3 kts | 227° |
| 2026-04-26 09:10 | 1.38718 | -77.29350 | 5950 ft | 3 kts | 329° |
| 2026-04-26 09:10 | 1.38759 | -77.29340 | 5948 ft | 11 kts | 18° |
| 2026-04-26 09:11 | 1.38963 | -77.29281 | 5934 ft | 65 kts | 14° |
| 2026-04-26 09:11 | 1.39645 | -77.29100 | 5907 ft | 136 kts | 15° |
| 2026-04-26 09:11 | 1.40758 | -77.28802 | 5912 ft | 190 kts | 15° |
| 2026-04-26 09:11 | 1.42081 | -77.28448 | 6648 ft | 197 kts | 15° |
| 2026-04-26 09:12 | 1.43385 | -77.28060 | 7643 ft | 193 kts | 17° |
| 2026-04-26 09:12 | 1.44695 | -77.27698 | 8274 ft | 202 kts | 12° |
| 2026-04-26 09:12 | 1.46118 | -77.27555 | 8709 ft | 214 kts | 359° |
| 2026-04-26 09:12 | 1.47618 | -77.27743 | 9207 ft | 221 kts | 347° |
| 2026-04-26 09:13 | 1.49182 | -77.28127 | 9469 ft | 244 kts | 346° |
| 2026-04-26 09:13 | 1.50902 | -77.28555 | 9701 ft | 265 kts | 346° |
| 2026-04-26 09:13 | 1.52727 | -77.29002 | 10181 ft | 273 kts | 347° |
| 2026-04-26 09:13 | 1.54618 | -77.29461 | 10561 ft | 290 kts | 347° |
| 2026-04-26 09:14 | 1.56671 | -77.29955 | 10744 ft | 316 kts | 347° |
| 2026-04-26 09:14 | 1.58897 | -77.30491 | 10916 ft | 340 kts | 347° |
| 2026-04-26 09:14 | 1.61249 | -77.31057 | 11087 ft | 361 kts | 347° |
| 2026-04-26 09:14 | 1.63736 | -77.31655 | 11488 ft | 371 kts | 347° |
| 2026-04-26 09:15 | 1.66270 | -77.32264 | 12107 ft | 375 kts | 347° |
| 2026-04-26 09:15 | 1.68816 | -77.32876 | 12758 ft | 377 kts | 347° |
| 2026-04-26 09:15 | 1.71391 | -77.33428 | 13371 ft | 380 kts | 352° |
| 2026-04-26 09:15 | 1.74042 | -77.33615 | 13952 ft | 384 kts | 1° |
| 2026-04-26 09:16 | 1.76713 | -77.33391 | 14496 ft | 387 kts | 9° |
| 2026-04-26 09:16 | 1.79343 | -77.32778 | 15047 ft | 390 kts | 17° |
| 2026-04-26 09:16 | 1.81871 | -77.31786 | 15585 ft | 393 kts | 26° |
| 2026-04-26 09:16 | 1.84265 | -77.30441 | 16115 ft | 396 kts | 33° |
| 2026-04-26 09:17 | 1.86469 | -77.28780 | 16625 ft | 399 kts | 38° |
| 2026-04-26 09:17 | 1.88666 | -77.27065 | 17138 ft | 402 kts | 37° |
| 2026-04-26 09:17 | 1.90870 | -77.25383 | 17636 ft | 405 kts | 38° |
| 2026-04-26 09:17 | 1.92876 | -77.23396 | 18109 ft | 409 kts | 53° |
| 2026-04-26 09:18 | 1.94511 | -77.21054 | 18556 ft | 412 kts | 56° |
| 2026-04-26 09:18 | 1.96122 | -77.18675 | 18983 ft | 414 kts | 56° |
| 2026-04-26 09:18 | 1.97741 | -77.16281 | 19402 ft | 417 kts | 56° |
| 2026-04-26 09:18 | 1.99379 | -77.13876 | 19851 ft | 419 kts | 55° |
| 2026-04-26 09:19 | 2.01035 | -77.11465 | 20262 ft | 421 kts | 55° |
| 2026-04-26 09:19 | 2.02711 | -77.09040 | 20667 ft | 424 kts | 55° |
| 2026-04-26 09:19 | 2.04399 | -77.06607 | 21072 ft | 426 kts | 55° |
| 2026-04-26 09:19 | 2.06073 | -77.04199 | 21462 ft | 429 kts | 54° |
| 2026-04-26 09:20 | 2.07782 | -77.01745 | 21849 ft | 431 kts | 54° |
| 2026-04-26 09:20 | 2.09499 | -76.99277 | 22225 ft | 434 kts | 54° |
| 2026-04-26 09:20 | 2.11229 | -76.96791 | 22586 ft | 436 kts | 54° |
| 2026-04-26 09:20 | 2.12970 | -76.94290 | 22940 ft | 439 kts | 54° |
| 2026-04-26 09:21 | 2.14721 | -76.91772 | 23299 ft | 441 kts | 55° |
| 2026-04-26 09:21 | 2.16477 | -76.89247 | 23619 ft | 444 kts | 55° |
| 2026-04-26 09:21 | 2.18244 | -76.86706 | 23904 ft | 446 kts | 55° |
| 2026-04-26 09:21 | 2.20022 | -76.84150 | 24214 ft | 447 kts | 55° |
| 2026-04-26 09:22 | 2.21777 | -76.81626 | 24525 ft | 449 kts | 55° |
| 2026-04-26 09:22 | 2.23564 | -76.79056 | 24822 ft | 450 kts | 55° |
| 2026-04-26 09:22 | 2.25358 | -76.76475 | 25116 ft | 452 kts | 55° |
| 2026-04-26 09:22 | 2.27157 | -76.73888 | 25416 ft | 454 kts | 55° |
| 2026-04-26 09:23 | 2.28965 | -76.71287 | 25705 ft | 455 kts | 55° |
| 2026-04-26 09:23 | 2.30776 | -76.68682 | 25985 ft | 457 kts | 55° |
| 2026-04-26 09:23 | 2.32593 | -76.66067 | 26254 ft | 459 kts | 55° |
| 2026-04-26 09:23 | 2.34416 | -76.63445 | 26533 ft | 460 kts | 55° |
| 2026-04-26 09:24 | 2.36247 | -76.60818 | 26793 ft | 462 kts | 54° |
| 2026-04-26 09:24 | 2.38333 | -76.58363 | 27027 ft | 464 kts | 45° |
| 2026-04-26 09:24 | 2.40660 | -76.56117 | 27288 ft | 465 kts | 43° |
| 2026-04-26 09:24 | 2.43049 | -76.53927 | 27518 ft | 467 kts | 43° |
| 2026-04-26 09:25 | 2.45428 | -76.51765 | 27755 ft | 468 kts | 43° |
| 2026-04-26 09:25 | 2.47836 | -76.49553 | 27971 ft | 470 kts | 43° |
| 2026-04-26 09:25 | 2.50233 | -76.47320 | 28188 ft | 471 kts | 44° |
| 2026-04-26 09:25 | 2.52621 | -76.45069 | 28416 ft | 472 kts | 44° |
| 2026-04-26 09:26 | 2.55011 | -76.42801 | 28617 ft | 474 kts | 44° |
| 2026-04-26 09:26 | 2.57402 | -76.40523 | 28814 ft | 476 kts | 44° |
| 2026-04-26 09:26 | 2.59798 | -76.38237 | 29003 ft | 477 kts | 44° |
| 2026-04-26 09:26 | 2.62204 | -76.35942 | 29191 ft | 478 kts | 44° |
| 2026-04-26 09:27 | 2.64620 | -76.33641 | 29399 ft | 479 kts | 44° |
| 2026-04-26 09:27 | 2.67031 | -76.31344 | 29681 ft | 478 kts | 44° |
| 2026-04-26 09:27 | 2.69435 | -76.29055 | 30020 ft | 477 kts | 45° |
| 2026-04-26 09:27 | 2.71842 | -76.26764 | 30301 ft | 476 kts | 45° |
| 2026-04-26 09:28 | 2.74239 | -76.24481 | 30535 ft | 476 kts | 45° |
| 2026-04-26 09:28 | 2.76637 | -76.22198 | 30772 ft | 476 kts | 45° |
| 2026-04-26 09:28 | 2.79038 | -76.19911 | 31039 ft | 475 kts | 45° |
| 2026-04-26 09:28 | 2.81433 | -76.17629 | 31299 ft | 475 kts | 45° |
| 2026-04-26 09:29 | 2.83826 | -76.15350 | 31568 ft | 474 kts | 45° |
| 2026-04-26 09:29 | 2.86183 | -76.13105 | 31832 ft | 474 kts | 45° |
| 2026-04-26 09:29 | 2.88567 | -76.10837 | 32106 ft | 473 kts | 45° |
| 2026-04-26 09:29 | 2.90958 | -76.08568 | 32384 ft | 473 kts | 45° |
| 2026-04-26 09:30 | 2.93347 | -76.06303 | 32664 ft | 472 kts | 45° |
| 2026-04-26 09:30 | 2.95728 | -76.04045 | 32915 ft | 472 kts | 45° |
| 2026-04-26 09:30 | 2.98112 | -76.01782 | 33183 ft | 472 kts | 45° |
| 2026-04-26 09:30 | 3.00492 | -75.99524 | 33476 ft | 471 kts | 45° |
| 2026-04-26 09:31 | 3.02868 | -75.97269 | 33771 ft | 470 kts | 45° |
| 2026-04-26 09:31 | 3.05238 | -75.95018 | 34045 ft | 470 kts | 45° |
| 2026-04-26 09:31 | 3.07604 | -75.92772 | 34274 ft | 469 kts | 45° |
| 2026-04-26 09:31 | 3.09974 | -75.90521 | 34491 ft | 470 kts | 45° |
| 2026-04-26 09:32 | 3.12346 | -75.88267 | 34704 ft | 470 kts | 45° |
| 2026-04-26 09:32 | 3.14684 | -75.86047 | 34929 ft | 470 kts | 45° |
| 2026-04-26 09:32 | 3.17052 | -75.83798 | 35084 ft | 470 kts | 44° |
| 2026-04-26 09:33 | 3.21811 | -75.79276 | 35058 ft | 471 kts | 44° |
| 2026-04-26 09:33 | 3.26559 | -75.74765 | 35048 ft | 469 kts | 44° |
| 2026-04-26 09:34 | 3.31279 | -75.70281 | 35030 ft | 467 kts | 44° |
| 2026-04-26 09:34 | 3.35989 | -75.65804 | 35026 ft | 466 kts | 44° |
| 2026-04-26 09:35 | 3.40690 | -75.61335 | 35028 ft | 466 kts | 44° |
| 2026-04-26 09:35 | 3.45393 | -75.56863 | 34997 ft | 466 kts | 44° |
| 2026-04-26 09:36 | 3.50104 | -75.52384 | 34993 ft | 467 kts | 44° |
| 2026-04-26 09:36 | 3.54825 | -75.47895 | 34989 ft | 469 kts | 44° |
| 2026-04-26 09:37 | 3.59556 | -75.43395 | 34978 ft | 470 kts | 44° |
| 2026-04-26 09:37 | 3.64316 | -75.38867 | 34970 ft | 472 kts | 44° |
| 2026-04-26 09:38 | 3.69047 | -75.34366 | 34969 ft | 473 kts | 44° |
| 2026-04-26 09:38 | 3.73818 | -75.29826 | 34966 ft | 474 kts | 44° |
| 2026-04-26 09:39 | 3.78603 | -75.25272 | 34949 ft | 474 kts | 44° |
| 2026-04-26 09:39 | 3.83390 | -75.20716 | 34945 ft | 474 kts | 44° |
| 2026-04-26 09:40 | 3.88179 | -75.16156 | 34681 ft | 479 kts | 45° |
| 2026-04-26 09:40 | 3.90608 | -75.13843 | 34050 ft | 480 kts | 45° |
| 2026-04-26 09:40 | 3.93030 | -75.11537 | 33299 ft | 480 kts | 45° |
| 2026-04-26 09:40 | 3.95450 | -75.09233 | 32513 ft | 480 kts | 45° |
| 2026-04-26 09:41 | 3.97868 | -75.06930 | 31731 ft | 481 kts | 45° |
| 2026-04-26 09:41 | 4.00263 | -75.04647 | 30961 ft | 481 kts | 44° |
| 2026-04-26 09:41 | 4.02691 | -75.02334 | 30144 ft | 482 kts | 44° |
| 2026-04-26 09:41 | 4.05131 | -75.00010 | 29156 ft | 485 kts | 44° |
| 2026-04-26 09:42 | 4.07576 | -74.97681 | 28270 ft | 484 kts | 44° |
| 2026-04-26 09:42 | 4.09997 | -74.95373 | 27640 ft | 478 kts | 44° |
| 2026-04-26 09:42 | 4.12392 | -74.93091 | 26984 ft | 472 kts | 44° |
| 2026-04-26 09:42 | 4.14758 | -74.90836 | 26355 ft | 467 kts | 44° |
| 2026-04-26 09:43 | 4.17116 | -74.88615 | 25731 ft | 462 kts | 40° |
| 2026-04-26 09:43 | 4.19811 | -74.86884 | 25101 ft | 459 kts | 24° |
| 2026-04-26 09:43 | 4.22852 | -74.85966 | 24512 ft | 455 kts | 9° |
| 2026-04-26 09:43 | 4.25971 | -74.85547 | 23893 ft | 451 kts | 7° |
| 2026-04-26 09:44 | 4.29084 | -74.85196 | 23214 ft | 448 kts | 6° |
| 2026-04-26 09:44 | 4.32170 | -74.84845 | 22530 ft | 444 kts | 7° |
| 2026-04-26 09:44 | 4.35194 | -74.84474 | 22347 ft | 429 kts | 7° |
| 2026-04-26 09:44 | 4.38106 | -74.84097 | 22150 ft | 415 kts | 7° |
| 2026-04-26 09:45 | 4.40892 | -74.83726 | 21978 ft | 403 kts | 8° |
| 2026-04-26 09:45 | 4.43632 | -74.83360 | 21802 ft | 391 kts | 8° |
| 2026-04-26 09:45 | 4.46315 | -74.83004 | 21345 ft | 388 kts | 7° |
| 2026-04-26 09:45 | 4.48975 | -74.82653 | 20924 ft | 384 kts | 7° |
| 2026-04-26 09:46 | 4.51618 | -74.82304 | 20494 ft | 381 kts | 7° |
| 2026-04-26 09:46 | 4.54238 | -74.81959 | 20067 ft | 379 kts | 7° |
| 2026-04-26 09:46 | 4.56841 | -74.81616 | 19633 ft | 376 kts | 7° |
| 2026-04-26 09:46 | 4.59431 | -74.81274 | 19203 ft | 374 kts | 7° |
| 2026-04-26 09:47 | 4.62013 | -74.80933 | 18752 ft | 373 kts | 7° |
| 2026-04-26 09:47 | 4.64591 | -74.80593 | 18319 ft | 372 kts | 7° |
| 2026-04-26 09:47 | 4.67151 | -74.80255 | 17863 ft | 370 kts | 7° |
| 2026-04-26 09:47 | 4.69695 | -74.79919 | 17431 ft | 367 kts | 7° |
| 2026-04-26 09:48 | 4.72193 | -74.79589 | 17277 ft | 356 kts | 7° |
| 2026-04-26 09:48 | 4.74610 | -74.79270 | 17116 ft | 346 kts | 7° |
| 2026-04-26 09:48 | 4.76963 | -74.79001 | 17013 ft | 334 kts | 0° |
| 2026-04-26 09:48 | 4.79237 | -74.79223 | 17016 ft | 325 kts | 351° |
| 2026-04-26 09:49 | 4.81467 | -74.79578 | 17008 ft | 325 kts | 351° |
| 2026-04-26 09:49 | 4.83719 | -74.79924 | 17020 ft | 329 kts | 351° |
| 2026-04-26 09:49 | 4.85967 | -74.80252 | 17014 ft | 331 kts | 351° |
| 2026-04-26 09:49 | 4.88244 | -74.80537 | 16997 ft | 330 kts | 358° |
| 2026-04-26 09:50 | 4.90487 | -74.80152 | 17007 ft | 328 kts | 22° |
| 2026-04-26 09:50 | 4.92396 | -74.78924 | 17005 ft | 329 kts | 44° |
| 2026-04-26 09:50 | 4.93353 | -74.77735 | 16851 ft | 334 kts | 59° |
| 2026-04-26 09:50 | 4.94141 | -74.75542 | 16604 ft | 336 kts | 82° |
| 2026-04-26 09:51 | 4.94148 | -74.73211 | 16371 ft | 334 kts | 94° |
| 2026-04-26 09:51 | 4.93948 | -74.70895 | 16114 ft | 333 kts | 95° |
| 2026-04-26 09:51 | 4.93716 | -74.68587 | 15877 ft | 332 kts | 95° |
| 2026-04-26 09:51 | 4.93485 | -74.66280 | 15626 ft | 332 kts | 95° |
| 2026-04-26 09:52 | 4.93263 | -74.63979 | 15386 ft | 331 kts | 95° |
| 2026-04-26 09:52 | 4.92842 | -74.59384 | 14912 ft | 329 kts | 95° |
| 2026-04-26 09:52 | 4.92642 | -74.57128 | 14686 ft | 328 kts | 95° |
| 2026-04-26 09:53 | 4.92442 | -74.54853 | 14445 ft | 327 kts | 95° |
| 2026-04-26 09:53 | 4.92243 | -74.52587 | 14224 ft | 325 kts | 95° |
| 2026-04-26 09:53 | 4.92046 | -74.50334 | 13994 ft | 323 kts | 95° |
| 2026-04-26 09:53 | 4.91849 | -74.48091 | 13755 ft | 322 kts | 95° |
| 2026-04-26 09:54 | 4.91653 | -74.45864 | 13487 ft | 318 kts | 95° |
| 2026-04-26 09:54 | 4.91056 | -74.43756 | 13219 ft | 314 kts | 117° |
| 2026-04-26 09:54 | 4.89936 | -74.41903 | 13041 ft | 308 kts | 125° |
| 2026-04-26 09:54 | 4.88658 | -74.40189 | 12782 ft | 306 kts | 128° |
| 2026-04-26 09:55 | 4.87355 | -74.38516 | 12560 ft | 303 kts | 128° |
| 2026-04-26 09:55 | 4.86080 | -74.36850 | 12332 ft | 299 kts | 127° |
| 2026-04-26 09:55 | 4.84835 | -74.35199 | 12124 ft | 295 kts | 127° |
| 2026-04-26 09:55 | 4.83609 | -74.33567 | 11934 ft | 291 kts | 127° |
| 2026-04-26 09:56 | 4.82405 | -74.31964 | 11778 ft | 285 kts | 127° |
| 2026-04-26 09:56 | 4.81218 | -74.30387 | 11512 ft | 284 kts | 127° |
| 2026-04-26 09:56 | 4.80025 | -74.28801 | 11201 ft | 285 kts | 127° |
| 2026-04-26 09:56 | 4.78834 | -74.27218 | 10876 ft | 283 kts | 127° |
| 2026-04-26 09:57 | 4.77658 | -74.25654 | 10547 ft | 275 kts | 127° |
| 2026-04-26 09:57 | 4.76533 | -74.24160 | 10236 ft | 261 kts | 127° |
| 2026-04-26 09:57 | 4.75471 | -74.22747 | 9935 ft | 247 kts | 127° |
| 2026-04-26 09:57 | 4.74471 | -74.21418 | 9619 ft | 230 kts | 127° |
| 2026-04-26 09:58 | 4.73551 | -74.20194 | 9309 ft | 215 kts | 127° |
| 2026-04-26 09:58 | 4.72684 | -74.19042 | 8987 ft | 200 kts | 127° |
| 2026-04-26 09:58 | 4.71878 | -74.17970 | 8715 ft | 183 kts | 127° |
| 2026-04-26 09:58 | 4.71162 | -74.17017 | 8459 ft | 164 kts | 127° |
| 2026-04-26 09:59 | 4.70498 | -74.16168 | 8373 ft | 139 kts | 128° |
| 2026-04-26 09:59 | 4.70038 | -74.15572 | 8371 ft | 77 kts | 127° |
| 2026-04-26 09:59 | 4.69838 | -74.15307 | 8372 ft | 26 kts | 127° |
| 2026-04-26 09:59 | 4.69749 | -74.15155 | 8371 ft | 25 kts | 109° |
| 2026-04-26 10:00 | 4.69720 | -74.14994 | 8370 ft | 19 kts | 98° |
| 2026-04-26 10:00 | 4.69718 | -74.14982 | 8369 ft | 0 kts | 98° |
| 2026-04-26 10:01 | 4.69718 | -74.14981 | 8369 ft | 1 kts | 98° |
| 2026-04-26 10:02 | 4.69716 | -74.14965 | 8369 ft | 5 kts | 97° |
| 2026-04-26 10:02 | 4.69708 | -74.14915 | 8369 ft | 10 kts | 96° |
| 2026-04-26 10:02 | 4.69731 | -74.14839 | 8369 ft | 14 kts | 50° |
| 2026-04-26 10:02 | 4.69813 | -74.14774 | 8369 ft | 17 kts | 37° |
| 2026-04-26 10:03 | 4.69916 | -74.14696 | 8369 ft | 20 kts | 37° |
| 2026-04-26 10:03 | 4.70032 | -74.14608 | 8369 ft | 18 kts | 42° |
| 2026-04-26 10:03 | 4.70026 | -74.14523 | 8369 ft | 13 kts | 113° |
| 2026-04-26 10:03 | 4.69975 | -74.14451 | 8369 ft | 11 kts | 127° |
| 2026-04-26 10:04 | 4.69935 | -74.14398 | 8369 ft | 4 kts | 127° |
| 2026-04-26 10:04 | 4.69918 | -74.14375 | 8369 ft | 3 kts | 127° |
| 2026-04-26 10:04 | 4.69911 | -74.14356 | 8369 ft | 3 kts | 89° |
| 2026-04-26 10:04 | 4.69921 | -74.14338 | 8369 ft | 3 kts | 47° |
| 2026-04-26 10:05 | 4.69941 | -74.14324 | 8369 ft | 4 kts | 40° |
| 2026-04-26 10:05 | 4.69964 | -74.14305 | 8369 ft | 3 kts | 37° |
| 2026-04-26 10:05 | 4.69972 | -74.14299 | 8369 ft | 0 kts | 37° |